UAL1165 KBOS-KILM
Flight info
| Callsign | UAL1165 |
|---|---|
| Flight time | N/A |
| Altitude | 36000 |
| Route | SSOXS7 SSOXS Q167 ZJAAY SAWED PAACK |
| Aircraft | A320/M-SDE3FGHIRWY/LB1 |
Departure
| Time | 2026-05-08 01:26 |
|---|---|
| Airport | Boston Logan International Airport (KBOS) |
Arrival
| Time | N/A |
|---|---|
| Airport | Wilmington International Airport (KILM) |
| Time | Latitude | Longitude | Altitude | Speed | Heading |
|---|---|---|---|---|---|
| 2026-05-08 00:50 | 42.36127 | -71.01661 | 26 ft | 0 kts | 289° |
| 2026-05-08 01:11 | 42.36126 | -71.01660 | 7 ft | 2 kts | 289° |
| 2026-05-08 01:11 | 42.36118 | -71.01628 | 30 ft | 4 kts | 289° |
| 2026-05-08 01:12 | 42.36109 | -71.01594 | 27 ft | 4 kts | 289° |
| 2026-05-08 01:12 | 42.36099 | -71.01563 | 28 ft | 4 kts | 321° |
| 2026-05-08 01:12 | 42.36078 | -71.01557 | 27 ft | 4 kts | 17° |
| 2026-05-08 01:12 | 42.36058 | -71.01566 | 28 ft | 4 kts | 20° |
| 2026-05-08 01:13 | 42.36034 | -71.01578 | 30 ft | 1 kts | 20° |
| 2026-05-08 01:17 | 42.36036 | -71.01577 | 30 ft | 1 kts | 20° |
| 2026-05-08 01:18 | 42.36049 | -71.01571 | 31 ft | 3 kts | 20° |
| 2026-05-08 01:18 | 42.36078 | -71.01557 | 27 ft | 5 kts | 20° |
| 2026-05-08 01:18 | 42.36120 | -71.01536 | 30 ft | 8 kts | 20° |
| 2026-05-08 01:18 | 42.36178 | -71.01508 | 26 ft | 10 kts | 20° |
| 2026-05-08 01:19 | 42.36250 | -71.01473 | 28 ft | 12 kts | 18° |
| 2026-05-08 01:19 | 42.36300 | -71.01449 | 27 ft | 3 kts | 19° |
| 2026-05-08 01:19 | 42.36330 | -71.01435 | 25 ft | 6 kts | 20° |
| 2026-05-08 01:19 | 42.36359 | -71.01394 | 27 ft | 7 kts | 69° |
| 2026-05-08 01:20 | 42.36341 | -71.01329 | 29 ft | 9 kts | 120° |
| 2026-05-08 01:20 | 42.36308 | -71.01255 | 28 ft | 10 kts | 121° |
| 2026-05-08 01:20 | 42.36277 | -71.01186 | 26 ft | 9 kts | 121° |
| 2026-05-08 01:20 | 42.36245 | -71.01101 | 25 ft | 11 kts | 114° |
| 2026-05-08 01:21 | 42.36211 | -71.00999 | 25 ft | 13 kts | 114° |
| 2026-05-08 01:21 | 42.36172 | -71.00882 | 27 ft | 15 kts | 114° |
| 2026-05-08 01:21 | 42.36139 | -71.00781 | 27 ft | 11 kts | 112° |
| 2026-05-08 01:21 | 42.36113 | -71.00685 | 26 ft | 12 kts | 109° |
| 2026-05-08 01:22 | 42.36086 | -71.00580 | 29 ft | 9 kts | 109° |
| 2026-05-08 01:22 | 42.36064 | -71.00493 | 25 ft | 11 kts | 109° |
| 2026-05-08 01:22 | 42.36037 | -71.00391 | 27 ft | 12 kts | 109° |
| 2026-05-08 01:22 | 42.36007 | -71.00274 | 25 ft | 14 kts | 109° |
| 2026-05-08 01:23 | 42.35973 | -71.00144 | 28 ft | 16 kts | 112° |
| 2026-05-08 01:23 | 42.35910 | -71.00022 | 27 ft | 16 kts | 132° |
| 2026-05-08 01:23 | 42.35834 | -70.99918 | 28 ft | 14 kts | 135° |
| 2026-05-08 01:23 | 42.35761 | -70.99822 | 30 ft | 16 kts | 135° |
| 2026-05-08 01:24 | 42.35690 | -70.99726 | 25 ft | 11 kts | 135° |
| 2026-05-08 01:24 | 42.35630 | -70.99646 | 25 ft | 13 kts | 135° |
| 2026-05-08 01:24 | 42.35574 | -70.99571 | 27 ft | 10 kts | 135° |
| 2026-05-08 01:24 | 42.35527 | -70.99509 | 29 ft | 9 kts | 135° |
| 2026-05-08 01:25 | 42.35491 | -70.99432 | 27 ft | 11 kts | 100° |
| 2026-05-08 01:25 | 42.35503 | -70.99326 | 28 ft | 12 kts | 78° |
| 2026-05-08 01:25 | 42.35543 | -70.99277 | 25 ft | 9 kts | 333° |
| 2026-05-08 01:25 | 42.35581 | -70.99318 | 25 ft | 12 kts | 318° |
| 2026-05-08 01:26 | 42.35808 | -70.99625 | 28 ft | 80 kts | 315° |
| 2026-05-08 01:26 | 42.36336 | -71.00332 | 25 ft | 131 kts | 315° |
| 2026-05-08 01:26 | 42.37045 | -71.01298 | 261 ft | 151 kts | 313° |
| 2026-05-08 01:26 | 42.37817 | -71.02327 | 682 ft | 165 kts | 315° |
| 2026-05-08 01:27 | 42.38581 | -71.03613 | 1012 ft | 187 kts | 300° |
| 2026-05-08 01:27 | 42.39285 | -71.05230 | 1478 ft | 211 kts | 300° |
| 2026-05-08 01:27 | 42.40064 | -71.07038 | 2023 ft | 232 kts | 300° |
| 2026-05-08 01:27 | 42.40790 | -71.09028 | 2873 ft | 241 kts | 284° |
| 2026-05-08 01:28 | 42.40672 | -71.11302 | 3763 ft | 252 kts | 252° |
| 2026-05-08 01:28 | 42.39844 | -71.13424 | 4746 ft | 259 kts | 239° |
| 2026-05-08 01:28 | 42.38775 | -71.15411 | 5741 ft | 263 kts | 234° |
| 2026-05-08 01:28 | 42.37611 | -71.17352 | 6692 ft | 268 kts | 229° |
| 2026-05-08 01:29 | 42.36079 | -71.18833 | 7631 ft | 277 kts | 207° |
| 2026-05-08 01:29 | 42.34229 | -71.19517 | 8598 ft | 285 kts | 188° |
| 2026-05-08 01:29 | 42.32232 | -71.19270 | 9583 ft | 295 kts | 167° |
| 2026-05-08 01:29 | 42.30267 | -71.18356 | 10372 ft | 306 kts | 165° |
| 2026-05-08 01:30 | 42.28184 | -71.17347 | 10700 ft | 330 kts | 164° |
| 2026-05-08 01:30 | 42.26001 | -71.16059 | 10926 ft | 356 kts | 154° |
| 2026-05-08 01:30 | 42.23919 | -71.14115 | 11411 ft | 371 kts | 143° |
| 2026-05-08 01:30 | 42.21969 | -71.11796 | 12065 ft | 376 kts | 143° |
| 2026-05-08 01:31 | 42.20638 | -71.10225 | 12529 ft | 378 kts | 144° |
| 2026-05-08 01:31 | 42.18642 | -71.07899 | 13162 ft | 382 kts | 145° |
| 2026-05-08 01:31 | 42.16612 | -71.05556 | 13810 ft | 385 kts | 146° |
| 2026-05-08 01:31 | 42.14520 | -71.03302 | 14416 ft | 383 kts | 152° |
| 2026-05-08 01:32 | 42.12352 | -71.01289 | 15019 ft | 384 kts | 153° |
| 2026-05-08 01:32 | 42.10117 | -70.99215 | 15660 ft | 386 kts | 154° |
| 2026-05-08 01:32 | 42.07934 | -70.97178 | 16280 ft | 387 kts | 154° |
| 2026-05-08 01:32 | 42.05685 | -70.95078 | 16936 ft | 389 kts | 155° |
| 2026-05-08 01:33 | 42.03489 | -70.93028 | 17588 ft | 390 kts | 155° |
| 2026-05-08 01:33 | 42.01253 | -70.90938 | 18219 ft | 392 kts | 155° |
| 2026-05-08 01:33 | 41.99006 | -70.88841 | 18751 ft | 395 kts | 155° |
| 2026-05-08 01:33 | 41.96734 | -70.86727 | 19229 ft | 400 kts | 155° |
| 2026-05-08 01:34 | 41.94431 | -70.84590 | 19738 ft | 404 kts | 155° |
| 2026-05-08 01:34 | 41.92106 | -70.82442 | 20247 ft | 407 kts | 155° |
| 2026-05-08 01:34 | 41.89729 | -70.80372 | 20727 ft | 404 kts | 161° |
| 2026-05-08 01:34 | 41.87189 | -70.78888 | 21194 ft | 394 kts | 172° |
| 2026-05-08 01:35 | 41.84549 | -70.78105 | 21649 ft | 384 kts | 183° |
| 2026-05-08 01:35 | 41.81910 | -70.78019 | 22097 ft | 376 kts | 193° |
| 2026-05-08 01:35 | 41.79359 | -70.78583 | 22494 ft | 369 kts | 202° |
| 2026-05-08 01:35 | 41.76960 | -70.79737 | 22890 ft | 365 kts | 211° |
| 2026-05-08 01:36 | 41.74726 | -70.81354 | 23314 ft | 366 kts | 215° |
| 2026-05-08 01:36 | 41.72503 | -70.83030 | 23682 ft | 369 kts | 215° |
| 2026-05-08 01:36 | 41.70260 | -70.84712 | 24043 ft | 371 kts | 215° |
| 2026-05-08 01:36 | 41.67999 | -70.86406 | 24404 ft | 373 kts | 215° |
| 2026-05-08 01:37 | 41.65735 | -70.88100 | 24799 ft | 374 kts | 215° |
| 2026-05-08 01:37 | 41.63455 | -70.89804 | 25183 ft | 375 kts | 215° |
| 2026-05-08 01:37 | 41.61175 | -70.91503 | 25529 ft | 376 kts | 216° |
| 2026-05-08 01:37 | 41.58881 | -70.93213 | 25862 ft | 379 kts | 216° |
| 2026-05-08 01:38 | 41.56617 | -70.94998 | 26196 ft | 377 kts | 220° |
| 2026-05-08 01:38 | 41.54601 | -70.97205 | 26536 ft | 373 kts | 229° |
| 2026-05-08 01:38 | 41.52916 | -70.99809 | 26883 ft | 370 kts | 237° |
| 2026-05-08 01:38 | 41.51481 | -71.02663 | 27215 ft | 371 kts | 239° |
| 2026-05-08 01:39 | 41.50049 | -71.05542 | 27566 ft | 373 kts | 239° |
| 2026-05-08 01:39 | 41.48610 | -71.08422 | 27904 ft | 374 kts | 239° |
| 2026-05-08 01:39 | 41.47162 | -71.11313 | 28220 ft | 376 kts | 239° |
| 2026-05-08 01:39 | 41.45711 | -71.14202 | 28669 ft | 374 kts | 239° |
| 2026-05-08 01:40 | 41.44264 | -71.17076 | 29101 ft | 372 kts | 239° |
| 2026-05-08 01:40 | 41.42824 | -71.19930 | 29582 ft | 371 kts | 239° |
| 2026-05-08 01:40 | 41.41392 | -71.22775 | 30048 ft | 369 kts | 239° |
| 2026-05-08 01:40 | 41.39968 | -71.25608 | 30457 ft | 367 kts | 239° |
| 2026-05-08 01:41 | 41.38549 | -71.28427 | 30848 ft | 366 kts | 239° |
| 2026-05-08 01:41 | 41.37133 | -71.31240 | 31247 ft | 365 kts | 239° |
| 2026-05-08 01:41 | 41.35719 | -71.34039 | 31638 ft | 364 kts | 239° |
| 2026-05-08 01:41 | 41.34307 | -71.36831 | 32028 ft | 363 kts | 239° |
| 2026-05-08 01:42 | 41.32896 | -71.39620 | 32423 ft | 363 kts | 239° |
| 2026-05-08 01:42 | 41.31489 | -71.42399 | 32817 ft | 362 kts | 239° |
| 2026-05-08 01:42 | 41.30086 | -71.45168 | 33213 ft | 361 kts | 239° |
| 2026-05-08 01:42 | 41.28685 | -71.47936 | 33614 ft | 360 kts | 239° |
| 2026-05-08 01:43 | 41.27289 | -71.50696 | 33992 ft | 359 kts | 239° |
| 2026-05-08 01:43 | 41.25895 | -71.53443 | 34329 ft | 358 kts | 239° |
| 2026-05-08 01:43 | 41.24501 | -71.56187 | 34698 ft | 357 kts | 239° |
| 2026-05-08 01:43 | 41.23112 | -71.58919 | 35055 ft | 356 kts | 239° |
| 2026-05-08 01:44 | 41.21730 | -71.61635 | 35373 ft | 354 kts | 239° |
| 2026-05-08 01:44 | 41.20352 | -71.64346 | 35673 ft | 354 kts | 239° |
| 2026-05-08 01:44 | 41.18974 | -71.67055 | 35838 ft | 354 kts | 239° |
| 2026-05-08 01:45 | 41.16187 | -71.72518 | 35878 ft | 360 kts | 238° |
| 2026-05-08 01:45 | 41.13372 | -71.78023 | 35883 ft | 360 kts | 239° |
| 2026-05-08 01:46 | 41.10572 | -71.83535 | 35899 ft | 360 kts | 239° |
| 2026-05-08 01:46 | 41.07773 | -71.89034 | 35895 ft | 360 kts | 239° |
| 2026-05-08 01:47 | 41.04967 | -71.94529 | 35935 ft | 360 kts | 239° |
| 2026-05-08 01:47 | 41.02483 | -72.00241 | 35929 ft | 357 kts | 246° |
| 2026-05-08 01:48 | 40.99340 | -72.09195 | 35903 ft | 358 kts | 246° |
| 2026-05-08 01:48 | 40.97247 | -72.15120 | 35885 ft | 358 kts | 246° |
| 2026-05-08 01:49 | 40.95137 | -72.21075 | 35908 ft | 358 kts | 246° |
| 2026-05-08 01:49 | 40.93024 | -72.27029 | 35943 ft | 358 kts | 246° |
| 2026-05-08 01:50 | 40.90428 | -72.32644 | 35936 ft | 363 kts | 232° |
| 2026-05-08 01:50 | 40.86827 | -72.37371 | 35925 ft | 365 kts | 230° |
| 2026-05-08 01:51 | 40.83210 | -72.42087 | 35850 ft | 366 kts | 230° |
| 2026-05-08 01:51 | 40.79545 | -72.46761 | 35871 ft | 369 kts | 226° |
| 2026-05-08 01:52 | 40.75577 | -72.51076 | 35870 ft | 370 kts | 226° |
| 2026-05-08 01:52 | 40.71596 | -72.55384 | 35892 ft | 370 kts | 226° |
| 2026-05-08 01:53 | 40.67628 | -72.59706 | 35891 ft | 370 kts | 226° |
| 2026-05-08 01:53 | 40.63759 | -72.64148 | 35859 ft | 368 kts | 228° |
| 2026-05-08 01:54 | 40.59929 | -72.68623 | 35868 ft | 368 kts | 228° |
| 2026-05-08 01:54 | 40.56072 | -72.73073 | 35882 ft | 369 kts | 227° |
| 2026-05-08 01:55 | 40.52191 | -72.77507 | 35894 ft | 370 kts | 227° |
| 2026-05-08 01:55 | 40.48311 | -72.81938 | 35896 ft | 370 kts | 227° |
| 2026-05-08 01:56 | 40.44431 | -72.86374 | 35871 ft | 370 kts | 227° |
| 2026-05-08 01:56 | 40.40549 | -72.90802 | 35888 ft | 370 kts | 227° |
| 2026-05-08 01:57 | 40.36663 | -72.95232 | 35932 ft | 370 kts | 227° |
| 2026-05-08 01:57 | 40.32776 | -72.99657 | 35925 ft | 370 kts | 227° |
| 2026-05-08 01:58 | 40.28881 | -73.04070 | 35853 ft | 370 kts | 227° |
| 2026-05-08 01:58 | 40.24975 | -73.08478 | 35872 ft | 371 kts | 227° |
| 2026-05-08 01:59 | 40.21063 | -73.12893 | 35884 ft | 371 kts | 227° |
| 2026-05-08 01:59 | 40.16679 | -73.16543 | 32190 ft | 453 kts | 189° |
| 2026-05-08 02:00 | 40.13293 | -73.16625 | 29019 ft | 491 kts | 204° |
| 2026-05-08 02:00 | 40.10090 | -73.17845 | 28211 ft | 480 kts | 194° |
| 2026-05-08 02:00 | 40.06786 | -73.17710 | 26734 ft | 464 kts | 185° |
| 2026-05-08 02:00 | 40.04219 | -73.17409 | 18268 ft | 333 kts | 207° |
| 2026-05-08 02:01 | 40.01807 | -73.18960 | 7266 ft | 382 kts | 210° |